Time;durP1;ratioP1;P1;durP2;ratioP2;P2;SDS_P1;SDS_P2;PMS_P1;PMS_P2;Temp;Humidity;BMP_temperature;BMP_pressure;BME280_temperature;BME280_humidity;BME280_pressure;Samples;Min_cycle;Max_cycle;Signal;HPM_P1;HPM_P2
2021/12/21 00:02:25;;;;;;;18.32;8.90;;;;;;;-2.74;100.00;99218.20;2261980;79;21512;-93
2021/12/21 00:05:29;;;;;;;14.38;8.30;;;;;;;-2.76;100.00;99218.75;2261848;79;21009;-92
2021/12/21 00:08:30;;;;;;;16.57;7.35;;;;;;;-2.75;100.00;99219.94;2262111;79;20974;-92
2021/12/21 00:11:31;;;;;;;10.78;6.70;;;;;;;-2.75;100.00;99223.78;2261960;79;21099;-93
2021/12/21 00:14:46;;;;;;;12.33;7.30;;;;;;;-2.71;100.00;99225.75;2261941;79;21013;-92
2021/12/21 00:23:50;;;;;;;11.43;6.90;;;;;;;-2.64;100.00;99227.90;2262074;79;21033;-92
2021/12/21 00:26:50;;;;;;;11.05;6.50;;;;;;;-2.61;100.00;99217.46;2262459;79;20986;-92
2021/12/21 00:29:51;;;;;;;13.00;7.65;;;;;;;-2.59;100.00;99223.78;2262268;79;21500;-91
2021/12/21 00:32:52;;;;;;;17.25;8.98;;;;;;;-2.57;100.00;99233.49;2262490;79;20997;-92
2021/12/21 00:35:53;;;;;;;19.92;8.70;;;;;;;-2.56;100.00;99224.92;2264524;79;21044;-92
2021/12/21 00:38:53;;;;;;;12.82;8.03;;;;;;;-2.53;100.00;99231.15;2265305;79;20981;-92
2021/12/21 00:41:54;;;;;;;14.73;8.03;;;;;;;-2.55;100.00;99224.00;2265395;79;20926;-93
2021/12/21 00:44:55;;;;;;;16.87;9.05;;;;;;;-2.53;100.00;99228.58;2265263;78;21056;-92
2021/12/21 00:47:56;;;;;;;19.50;8.68;;;;;;;-2.51;100.00;99225.93;2265311;79;21498;-92
2021/12/21 00:50:57;;;;;;;21.80;9.98;;;;;;;-2.49;100.00;99231.80;2265416;78;20973;-92
2021/12/21 00:53:57;;;;;;;18.20;9.10;;;;;;;-2.51;100.00;99233.16;2265166;79;21021;-93
2021/12/21 00:56:58;;;;;;;13.15;8.63;;;;;;;-2.51;100.00;99236.19;2265374;78;21060;-92
2021/12/21 01:00:01;;;;;;;22.13;7.97;;;;;;;-2.55;100.00;99236.83;2264170;79;20987;-93
2021/12/21 01:03:07;;;;;;;19.60;10.82;;;;;;;-2.56;100.00;99242.87;2265367;78;21068;-92
2021/12/21 01:06:38;;;;;;;19.90;8.73;;;;;;;-2.58;100.00;99244.20;2264480;79;21038;-93
2021/12/21 01:12:15;;;;;;;20.43;9.85;;;;;;;-2.51;100.00;99247.73;2264930;79;21504;-93
2021/12/21 01:18:22;;;;;;;18.12;9.95;;;;;;;-2.49;100.00;99262.56;2265351;79;21473;-92
2021/12/21 01:21:23;;;;;;;19.12;9.75;;;;;;;-2.45;100.00;99261.50;2264278;79;21058;-90
2021/12/21 01:24:34;;;;;;;18.70;9.45;;;;;;;-2.45;100.00;99263.61;2264531;78;21516;-92
2021/12/21 01:27:35;;;;;;;19.20;9.20;;;;;;;-2.43;100.00;99255.38;2262467;78;21453;-91
2021/12/21 01:36:57;;;;;;;19.25;9.43;;;;;;;-2.40;100.00;99243.65;2265140;78;21001;-90
2021/12/21 01:43:16;;;;;;;18.85;9.20;;;;;;;-2.35;100.00;99248.08;2264923;79;20974;-93
2021/12/21 01:52:33;;;;;;;15.40;8.40;;;;;;;-2.20;100.00;99246.37;2264652;79;21582;-92
2021/12/21 01:55:34;;;;;;;16.05;9.18;;;;;;;-2.17;100.00;99237.70;2264865;79;20954;-92
2021/12/21 01:58:37;;;;;;;19.90;11.22;;;;;;;-2.14;100.00;99246.05;2265094;78;20993;-94
2021/12/21 02:01:38;;;;;;;16.48;9.43;;;;;;;-2.10;100.00;99245.44;2265267;79;21017;-94
2021/12/21 02:04:38;;;;;;;14.75;9.33;;;;;;;-2.06;100.00;99240.48;2265228;78;21417;-92
2021/12/21 02:07:39;;;;;;;16.30;9.95;;;;;;;-1.99;100.00;99240.51;2265090;79;21029;-92
2021/12/21 02:10:40;;;;;;;19.17;9.43;;;;;;;-2.00;100.00;99236.30;2265174;79;21006;-91
2021/12/21 02:13:46;;;;;;;17.17;8.60;;;;;;;-2.02;100.00;99231.22;2265217;79;21001;-92
2021/12/21 02:16:56;;;;;;;20.35;9.80;;;;;;;-2.06;100.00;99237.45;2264591;79;21009;-92
2021/12/21 02:19:52;;;;;;;16.25;9.18;;;;;;;-2.11;100.00;99243.30;2262938;78;21030;-92
2021/12/21 02:23:05;;;;;;;17.48;9.75;;;;;;;-2.15;100.00;99248.70;2264639;79;21073;-89
2021/12/21 02:29:16;;;;;;;12.63;8.33;;;;;;;-2.18;100.00;99250.17;2264848;79;20950;-91
2021/12/21 02:32:15;;;;;;;16.65;9.90;;;;;;;-2.20;100.00;99243.81;2264325;79;21001;-90
2021/12/21 02:35:16;;;;;;;19.40;11.22;;;;;;;-2.21;100.00;99243.91;2263366;79;21172;-94
2021/12/21 02:38:17;;;;;;;17.55;10.28;;;;;;;-2.19;100.00;99244.67;2262203;79;21022;-92
2021/12/21 02:41:18;;;;;;;18.70;9.98;;;;;;;-2.21;100.00;99249.03;2262506;79;21009;-93
2021/12/21 02:44:18;;;;;;;18.85;10.10;;;;;;;-2.19;100.00;99252.37;2262412;79;20922;-93
2021/12/21 02:47:19;;;;;;;18.45;10.23;;;;;;;-2.19;100.00;99242.11;2262406;79;21001;-92
2021/12/21 02:50:20;;;;;;;16.17;8.93;;;;;;;-2.27;100.00;99248.94;2262382;79;20943;-91
2021/12/21 02:53:21;;;;;;;11.12;8.43;;;;;;;-2.28;100.00;99250.31;2262266;79;21005;-92
2021/12/21 02:56:22;;;;;;;20.45;10.28;;;;;;;-2.34;100.00;99251.02;2262300;79;21025;-92
2021/12/21 02:59:22;;;;;;;17.80;9.60;;;;;;;-2.37;100.00;99261.91;2262517;79;21509;-92
2021/12/21 03:02:23;;;;;;;20.90;9.58;;;;;;;-2.40;100.00;99259.04;2262435;79;20981;-92
2021/12/21 03:05:24;;;;;;;13.30;7.87;;;;;;;-2.36;100.00;99259.25;2262628;79;20961;-93
2021/12/21 03:08:37;;;;;;;19.12;9.88;;;;;;;-2.37;100.00;99255.50;2262546;79;21497;-91
2021/12/21 03:11:48;;;;;;;19.57;10.60;;;;;;;-2.43;100.00;99269.94;2260122;78;21077;-91
2021/12/21 03:14:39;;;;;;;17.55;10.32;;;;;;;-2.43;100.00;99273.78;2260098;79;20997;-91
2021/12/21 03:17:40;;;;;;;18.00;9.75;;;;;;;-2.39;100.00;99269.66;2262255;79;20955;-92
2021/12/21 03:20:41;;;;;;;18.87;10.23;;;;;;;-2.37;100.00;99272.17;2262047;79;20970;-92
2021/12/21 03:23:42;;;;;;;15.55;9.10;;;;;;;-2.32;100.00;99262.01;2261949;79;21030;-93
2021/12/21 03:26:43;;;;;;;15.35;10.40;;;;;;;-2.20;100.00;99268.64;2262332;79;20970;-92
2021/12/21 03:29:43;;;;;;;16.60;9.25;;;;;;;-2.12;100.00;99267.30;2262525;79;21008;-93
2021/12/21 03:32:44;;;;;;;14.65;8.68;;;;;;;-2.09;100.00;99260.73;2262531;79;21042;-93
2021/12/21 03:35:45;;;;;;;22.05;11.43;;;;;;;-2.08;100.00;99253.41;2263745;79;20966;-93
2021/12/21 03:38:56;;;;;;;19.57;10.30;;;;;;;-2.05;100.00;99258.81;2265275;78;21034;-94
2021/12/21 03:41:54;;;;;;;16.90;10.32;;;;;;;-2.06;100.00;99259.27;2264750;78;21016;-94
2021/12/21 03:44:54;;;;;;;14.85;9.00;;;;;;;-2.05;100.00;99254.50;2265398;78;21066;-94
2021/12/21 03:47:55;;;;;;;16.17;9.85;;;;;;;-2.08;100.00;99259.82;2265657;79;20969;-93
2021/12/21 03:50:56;;;;;;;14.38;10.28;;;;;;;-2.09;100.00;99257.34;2265212;78;20962;-92
2021/12/21 03:53:57;;;;;;;14.30;9.73;;;;;;;-2.04;100.00;99252.77;2265073;78;21069;-93
2021/12/21 03:56:57;;;;;;;17.05;11.20;;;;;;;-2.03;100.00;99260.83;2265733;79;21001;-93
2021/12/21 03:59:58;;;;;;;16.27;9.53;;;;;;;-2.05;100.00;99263.48;2265593;78;21429;-93
2021/12/21 04:02:59;;;;;;;21.97;10.45;;;;;;;-2.07;100.00;99272.19;2265125;79;21025;-93
2021/12/21 04:06:00;;;;;;;15.25;8.63;;;;;;;-2.10;100.00;99271.92;2265477;79;20965;-92
2021/12/21 04:09:01;;;;;;;12.30;8.13;;;;;;;-2.11;100.00;99272.80;2265532;78;21418;-92
2021/12/21 04:12:01;;;;;;;14.15;9.05;;;;;;;-2.15;100.00;99275.19;2265280;79;21057;-92
2021/12/21 04:15:03;;;;;;;13.13;7.70;;;;;;;-2.15;100.00;99274.36;2265586;79;21493;-92
2021/12/21 04:18:06;;;;;;;11.35;7.53;;;;;;;-2.14;100.00;99275.55;2265222;79;20973;-92
2021/12/21 04:21:08;;;;;;;10.25;6.50;;;;;;;-2.09;100.00;99277.87;2265397;79;21016;-93
2021/12/21 04:24:09;;;;;;;15.68;8.05;;;;;;;-2.05;100.00;99275.03;2265376;78;21042;-91
2021/12/21 04:27:10;;;;;;;11.83;6.90;;;;;;;-2.01;100.00;99273.14;2265001;79;21013;-92
2021/12/21 04:30:11;;;;;;;14.53;7.70;;;;;;;-2.02;100.00;99276.14;2265123;79;21018;-93
2021/12/21 04:33:11;;;;;;;10.82;6.67;;;;;;;-1.99;100.00;99284.14;2265120;78;21085;-92
2021/12/21 04:36:12;;;;;;;11.97;7.05;;;;;;;-1.99;100.00;99275.62;2263356;79;21057;-93
2021/12/21 04:39:27;;;;;;;7.62;5.80;;;;;;;-2.02;100.00;99274.03;2262800;79;21062;-93
2021/12/21 04:42:19;;;;;;;18.00;10.58;;;;;;;-2.08;100.00;99270.55;2258894;79;21073;-93
2021/12/21 04:45:19;;;;;;;14.87;8.43;;;;;;;-2.08;100.00;99288.05;2262820;79;20986;-93
2021/12/21 04:48:20;;;;;;;12.35;8.35;;;;;;;-2.08;100.00;99284.20;2262909;79;20922;-93
2021/12/21 04:51:21;;;;;;;11.35;7.80;;;;;;;-2.05;100.00;99278.89;2262646;79;21017;-93
2021/12/21 04:54:22;;;;;;;15.68;9.93;;;;;;;-2.04;100.00;99283.56;2262663;79;21001;-94
2021/12/21 04:57:23;;;;;;;12.18;8.55;;;;;;;-1.98;100.00;99287.08;2262719;79;20974;-93
2021/12/21 05:00:23;;;;;;;9.90;7.03;;;;;;;-1.94;100.00;99289.83;2262815;79;21009;-93
2021/12/21 05:03:24;;;;;;;11.05;7.50;;;;;;;-1.95;100.00;99286.89;2262725;79;21042;-93
2021/12/21 05:06:26;;;;;;;11.18;6.83;;;;;;;-1.96;100.00;99285.23;2263197;79;20946;-94
2021/12/21 05:09:29;;;;;;;14.73;7.90;;;;;;;-1.93;100.00;99294.50;2262627;79;20962;-93
2021/12/21 05:12:29;;;;;;;10.82;6.17;;;;;;;-1.96;100.00;99292.12;2262342;79;21101;-93
2021/12/21 05:15:30;;;;;;;17.32;9.10;;;;;;;-2.00;100.00;99303.02;2262676;79;20958;-94
2021/12/21 05:18:32;;;;;;;11.20;6.28;;;;;;;-2.03;100.00;99302.72;2262708;79;20973;-94
2021/12/21 05:21:33;;;;;;;9.40;5.53;;;;;;;-1.99;100.00;99305.13;2262506;79;20970;-94
2021/12/21 05:24:34;;;;;;;9.93;5.78;;;;;;;-1.99;100.00;99307.70;2262657;79;21509;-94
2021/12/21 05:27:35;;;;;;;9.13;5.10;;;;;;;-1.99;100.00;99306.41;2262639;79;20997;-93
2021/12/21 05:30:35;;;;;;;9.25;6.12;;;;;;;-2.00;100.00;99305.59;2262462;79;21552;-92
2021/12/21 05:33:36;;;;;;;15.18;7.03;;;;;;;-1.97;100.00;99306.69;2262651;79;20985;-93
2021/12/21 05:36:37;;;;;;;11.48;6.80;;;;;;;-1.97;100.00;99311.83;2264283;79;21009;-92
2021/12/21 05:39:50;;;;;;;8.10;5.87;;;;;;;-1.98;100.00;99311.91;2265430;78;21537;-93
2021/12/21 05:42:40;;;;;;;7.53;5.58;;;;;;;-2.02;100.00;99315.91;2262786;78;21020;-93
2021/12/21 05:45:41;;;;;;;11.35;5.28;;;;;;;-2.06;100.00;99319.58;2265405;79;21080;-91
2021/12/21 05:48:42;;;;;;;12.20;5.83;;;;;;;-2.10;100.00;99318.56;2264914;79;21017;-88
2021/12/21 05:51:43;;;;;;;9.95;5.65;;;;;;;-2.11;100.00;99324.13;2264863;78;21596;-85
2021/12/21 05:54:44;;;;;;;16.50;9.40;;;;;;;-2.13;100.00;99320.00;2266427;78;21053;-90
2021/12/21 05:57:44;;;;;;;21.93;11.10;;;;;;;-2.13;100.00;99321.28;2266168;78;21002;-89
2021/12/21 06:00:45;;;;;;;19.73;9.70;;;;;;;-2.15;100.00;99325.22;2264692;79;21465;-89
2021/12/21 06:03:46;;;;;;;21.90;11.95;;;;;;;-2.17;100.00;99328.33;2264677;79;21033;-88
2021/12/21 06:06:47;;;;;;;23.15;10.55;;;;;;;-2.15;100.00;99326.96;2264938;78;21409;-90
2021/12/21 06:09:48;;;;;;;19.95;10.00;;;;;;;-2.15;100.00;99331.63;2237297;79;21001;-87
2021/12/21 06:13:15;;;;;;;31.25;14.53;;;;;;;-2.20;100.00;99336.64;2264879;79;20992;-90
2021/12/21 06:16:26;;;;;;;23.20;10.80;;;;;;;-2.22;100.00;99336.73;2260653;78;21053;-88
2021/12/21 06:22:45;;;;;;;24.92;8.40;;;;;;;-2.26;100.00;99335.71;2264734;78;21520;-88
2021/12/21 06:25:58;;;;;;;21.48;7.60;;;;;;;-2.27;100.00;99335.34;2264770;78;20994;-90
2021/12/21 06:28:55;;;;;;;11.45;6.65;;;;;;;-2.29;100.00;99336.69;2263757;78;20982;-91
2021/12/21 06:31:55;;;;;;;15.98;8.18;;;;;;;-2.34;100.00;99342.53;2265112;78;21021;-92
2021/12/21 06:34:58;;;;;;;15.00;8.20;;;;;;;-2.43;100.00;99348.98;2264528;79;21057;-88
2021/12/21 06:37:59;;;;;;;21.75;11.40;;;;;;;-2.52;100.00;99349.48;2261700;78;21517;-87
2021/12/21 06:41:00;;;;;;;19.65;8.73;;;;;;;-2.57;100.00;99362.53;2261997;79;20981;-89
2021/12/21 06:44:02;;;;;;;16.12;7.53;;;;;;;-2.58;100.00;99364.72;2262060;79;20997;-85
2021/12/21 06:53:41;;;;;;;22.75;11.55;;;;;;;-2.73;100.00;99380.93;2261469;79;21112;-85
2021/12/21 06:56:42;;;;;;;23.80;11.03;;;;;;;-2.76;100.00;99384.09;2261693;79;21088;-85
2021/12/21 06:59:43;;;;;;;18.62;7.78;;;;;;;-2.75;100.00;99380.61;2262093;79;20997;-87
2021/12/21 07:02:44;;;;;;;23.05;11.90;;;;;;;-2.72;100.00;99380.47;2261789;79;20939;-88
2021/12/21 07:05:45;;;;;;;10.65;7.15;;;;;;;-2.70;100.00;99378.20;2261622;79;21057;-81
2021/12/21 07:08:48;;;;;;;20.02;8.58;;;;;;;-2.62;100.00;99381.64;2262050;79;21109;-82
2021/12/21 07:12:08;;;;;;;13.18;7.78;;;;;;;-2.56;100.00;99385.19;2261614;79;20974;-85
2021/12/21 07:18:24;;;;;;;6.72;5.78;;;;;;;-2.51;100.00;99396.46;2261781;79;21048;-84
2021/12/21 07:21:15;;;;;;;9.90;5.20;;;;;;;-2.47;100.00;99392.81;2259983;78;21064;-85
2021/12/21 07:24:19;;;;;;;10.32;5.90;;;;;;;-2.47;100.00;99395.38;2262124;79;20966;-85
2021/12/21 07:27:20;;;;;;;8.65;4.83;;;;;;;-2.48;100.00;99402.70;2236975;79;20938;-86
2021/12/21 07:30:21;;;;;;;10.60;6.33;;;;;;;-2.48;100.00;99403.98;2262279;79;21109;-87
2021/12/21 07:33:22;;;;;;;11.12;6.75;;;;;;;-2.47;100.00;99403.08;2262055;79;21547;-85
2021/12/21 07:36:23;;;;;;;11.55;7.87;;;;;;;-2.46;100.00;99408.15;2262013;79;21059;-85
2021/12/21 07:39:24;;;;;;;10.95;7.62;;;;;;;-2.46;100.00;99414.56;2262122;79;21130;-90
2021/12/21 07:42:24;;;;;;;13.72;8.63;;;;;;;-2.48;100.00;99409.94;2262288;79;21009;-89
2021/12/21 07:45:25;;;;;;;12.05;9.28;;;;;;;-2.51;100.00;99399.03;2262170;79;20966;-83
2021/12/21 07:48:26;;;;;;;16.17;8.78;;;;;;;-2.51;100.00;99409.28;2261983;79;21441;-85
2021/12/21 07:51:27;;;;;;;15.08;8.90;;;;;;;-2.51;100.00;99425.50;2262079;79;21041;-82
2021/12/21 07:54:28;;;;;;;12.00;9.13;;;;;;;-2.50;100.00;99410.48;2262097;79;21049;-85
2021/12/21 07:57:28;;;;;;;11.08;9.45;;;;;;;-2.48;100.00;99414.24;2262083;79;20985;-85
2021/12/21 08:00:29;;;;;;;12.85;9.58;;;;;;;-2.41;100.00;99427.95;2262093;79;21574;-86
2021/12/21 08:03:32;;;;;;;11.90;8.53;;;;;;;-2.33;100.00;99428.84;2261963;79;20955;-86
2021/12/21 08:06:33;;;;;;;11.20;7.95;;;;;;;-2.28;100.00;99424.30;2262182;79;20997;-85
2021/12/21 08:09:39;;;;;;;10.75;6.40;;;;;;;-2.21;100.00;99431.20;2262200;79;21505;-85
2021/12/21 08:12:37;;;;;;;12.35;8.30;;;;;;;-2.20;100.00;99426.44;2261501;79;21553;-90
2021/12/21 08:15:37;;;;;;;12.35;7.03;;;;;;;-2.18;100.00;99433.16;2236726;79;21002;-87
2021/12/21 08:18:38;;;;;;;11.15;7.28;;;;;;;-2.13;100.00;99435.02;2262058;79;20966;-88
2021/12/21 08:21:39;;;;;;;8.08;6.72;;;;;;;-2.16;100.00;99427.48;2261675;79;20997;-83
2021/12/21 08:24:40;;;;;;;14.65;7.78;;;;;;;-2.17;100.00;99425.84;2262013;79;21034;-85
2021/12/21 08:27:41;;;;;;;19.42;10.80;;;;;;;-2.18;100.00;99433.62;2261975;79;21041;-87
2021/12/21 08:30:42;;;;;;;46.40;19.23;;;;;;;-2.13;100.00;99440.61;2262044;79;21520;-86
2021/12/21 08:33:42;;;;;;;26.00;13.13;;;;;;;-2.12;100.00;99444.36;2261829;79;20982;-85
2021/12/21 08:36:43;;;;;;;19.57;11.63;;;;;;;-2.11;100.00;99460.59;2261668;79;21671;-84
2021/12/21 08:39:44;;;;;;;17.95;10.18;;;;;;;-2.08;100.00;99463.84;2261856;79;21021;-83
2021/12/21 08:42:47;;;;;;;14.73;9.13;;;;;;;-2.03;100.00;99466.97;2262029;79;20992;-85
2021/12/21 08:45:48;;;;;;;11.03;8.05;;;;;;;-2.00;100.00;99472.42;2262109;79;20989;-82
2021/12/21 08:48:49;;;;;;;12.13;8.73;;;;;;;-2.04;100.00;99480.72;2261877;79;21509;-80
2021/12/21 08:51:49;;;;;;;11.70;7.20;;;;;;;-2.03;100.00;99491.35;2261888;79;21017;-80
2021/12/21 08:54:50;;;;;;;13.30;8.65;;;;;;;-2.11;100.00;99493.95;2261850;79;21038;-81
2021/12/21 08:57:51;;;;;;;11.48;6.55;;;;;;;-2.16;100.00;99485.23;2261732;79;21049;-81
2021/12/21 09:00:55;;;;;;;17.27;8.15;;;;;;;-2.26;100.00;99483.23;2261826;79;21054;-81
2021/12/21 09:07:02;;;;;;;20.12;13.35;;;;;;;-2.31;100.00;99489.86;2042732;87;21035;-79
2021/12/21 09:10:06;;;;;;;16.80;10.45;;;;;;;-2.32;100.00;99490.77;2007985;89;21122;-86
2021/12/21 09:13:16;;;;;;;12.05;8.60;;;;;;;-2.31;100.00;99493.26;2037714;87;21106;-86
2021/12/21 09:16:17;;;;;;;16.40;9.45;;;;;;;-2.31;100.00;99488.13;2007650;89;21067;-82
2021/12/21 09:19:18;;;;;;;8.20;7.40;;;;;;;-2.23;100.00;99486.45;2042612;87;21582;-82
2021/12/21 09:22:19;;;;;;;16.57;9.78;;;;;;;-2.17;100.00;99491.72;2008072;89;21472;-83
2021/12/21 09:25:20;;;;;;;11.73;7.53;;;;;;;-2.11;100.00;99488.81;2042721;87;21070;-87
2021/12/21 09:28:21;;;;;;;10.70;7.70;;;;;;;-2.07;100.00;99491.61;2008217;89;21068;-85
2021/12/21 09:31:21;;;;;;;16.67;9.28;;;;;;;-2.08;100.00;99491.24;2042410;87;21714;-86
2021/12/21 09:34:22;;;;;;;17.12;11.18;;;;;;;-2.08;100.00;99488.22;2007973;89;21050;-85
2021/12/21 09:37:23;;;;;;;11.38;7.78;;;;;;;-2.04;100.00;99479.89;2007828;89;21170;-84
2021/12/21 09:40:25;;;;;;;15.20;10.15;;;;;;;-2.05;100.00;99479.06;2091675;82;21539;-83
2021/12/21 09:43:26;;;;;;;15.40;10.65;;;;;;;-2.05;100.00;99480.34;2155952;82;21167;-84
2021/12/21 09:46:28;;;;;;;18.70;10.58;;;;;;;-1.99;100.00;99490.75;2181191;82;21041;-83
2021/12/21 09:49:29;;;;;;;16.95;11.18;;;;;;;-1.95;100.00;99487.10;2155583;82;21499;-82
2021/12/21 09:52:33;;;;;;;18.75;11.93;;;;;;;-1.88;100.00;99492.74;2181564;82;21487;-81
2021/12/21 09:55:49;;;;;;;15.53;9.60;;;;;;;-1.81;100.00;99490.23;2154443;82;21067;-85
2021/12/21 09:58:52;;;;;;;17.82;9.50;;;;;;;-1.76;100.00;99499.77;2155448;82;21055;-84
2021/12/21 10:01:55;;;;;;;18.57;9.80;;;;;;;-1.72;100.00;99503.39;2180931;82;21549;-85
2021/12/21 10:04:59;;;;;;;24.12;11.70;;;;;;;-1.73;100.00;99502.20;2216760;80;21584;-86
2021/12/21 10:08:20;;;;;;;;;;;;;;;;;;;;;
2021/12/21 10:11:12;;;;;;;15.13;9.90;;;;;;;-1.71;100.00;99505.50;2065353;85;21666;-85
2021/12/21 10:14:22;;;;;;;15.58;8.70;;;;;;;-1.70;100.00;99504.59;2122881;84;21090;-85
2021/12/21 10:17:16;;;;;;;26.00;13.53;;;;;;;-1.78;100.00;99511.42;2119785;83;21137;-85
2021/12/21 10:20:19;;;;;;;18.73;11.20;;;;;;;-1.81;100.00;99510.77;2122938;84;21046;-84
2021/12/21 10:23:22;;;;;;;17.45;11.15;;;;;;;-1.79;100.00;99507.66;2123203;84;21097;-85
2021/12/21 10:26:22;;;;;;;15.98;9.50;;;;;;;-1.78;100.00;99504.17;2122901;83;21528;-84
2021/12/21 10:29:23;;;;;;;11.60;8.28;;;;;;;-1.78;100.00;99509.30;2123643;84;21530;-84
2021/12/21 10:32:24;;;;;;;12.73;8.53;;;;;;;-1.79;100.00;99502.06;2123363;84;21090;-84
2021/12/21 10:35:24;;;;;;;14.18;8.58;;;;;;;-1.77;100.00;99510.96;2123362;84;20983;-85
2021/12/21 10:38:25;;;;;;;18.90;9.53;;;;;;;-1.74;100.00;99505.65;2136323;82;21062;-84
2021/12/21 10:41:26;;;;;;;14.40;7.28;;;;;;;-1.69;100.00;99504.13;2156402;81;20959;-83
2021/12/21 10:44:27;;;;;;;16.97;9.55;;;;;;;-1.59;100.00;99506.58;2193008;81;21313;-83
2021/12/21 10:47:30;;;;;;;16.32;9.43;;;;;;;-1.53;100.00;99507.08;2192888;81;20993;-83
2021/12/21 10:50:32;;;;;;;16.97;8.83;;;;;;;-1.46;100.00;99502.44;2192844;81;21031;-82
2021/12/21 10:53:33;;;;;;;13.08;8.35;;;;;;;-1.45;100.00;99494.64;2193374;81;21144;-86
2021/12/21 10:56:34;;;;;;;11.60;6.67;;;;;;;-1.42;100.00;99497.95;2192868;81;20990;-85
2021/12/21 10:59:35;;;;;;;7.10;5.37;;;;;;;-1.51;100.00;99494.14;2192949;81;20947;-85
2021/12/21 11:02:36;;;;;;;8.15;5.58;;;;;;;-1.59;100.00;99490.70;2193173;81;21107;-84
2021/12/21 11:05:38;;;;;;;16.20;7.87;;;;;;;-1.61;100.00;99487.86;2294341;77;20980;-84
2021/12/21 11:08:39;;;;;;;15.23;8.45;;;;;;;-1.62;100.00;99489.59;2311825;77;21503;-84
2021/12/21 11:11:47;;;;;;;9.18;5.40;;;;;;;-1.63;100.00;99493.54;2311654;77;21016;-84
2021/12/21 11:14:44;;;;;;;12.63;6.97;;;;;;;-1.67;100.00;99490.75;2310221;77;20996;-87
2021/12/21 11:17:45;;;;;;;12.07;7.03;;;;;;;-1.74;100.00;99499.23;2285658;77;21016;-83
2021/12/21 11:20:48;;;;;;;12.80;5.90;;;;;;;-1.80;100.00;99485.46;2311965;77;20987;-87
2021/12/21 11:23:48;;;;;;;12.80;7.47;;;;;;;-1.78;100.00;99488.31;2311576;77;21041;-84
2021/12/21 11:26:49;;;;;;;9.75;6.25;;;;;;;-1.73;100.00;99488.91;2311778;77;20989;-81
2021/12/21 11:29:50;;;;;;;10.93;6.30;;;;;;;-1.66;100.00;99482.95;2311593;77;20976;-84
2021/12/21 11:32:51;;;;;;;11.03;6.00;;;;;;;-1.59;100.00;99483.45;2312097;77;21008;-86
2021/12/21 11:39:13;;;;;;;13.35;8.45;;;;;;;-1.54;100.00;99480.20;2314190;77;21515;-82
2021/12/21 11:42:14;;;;;;;13.35;8.00;;;;;;;-1.49;100.00;99480.75;2314581;77;21044;-87
2021/12/21 11:45:15;;;;;;;13.95;7.35;;;;;;;-1.40;100.00;99484.09;2314751;77;20957;-85
2021/12/21 11:48:16;;;;;;;12.10;6.97;;;;;;;-1.32;100.00;99475.50;2314862;77;21060;-85
2021/12/21 11:51:16;;;;;;;9.63;6.40;;;;;;;-1.27;100.00;99479.11;2314851;77;21443;-85
2021/12/21 11:54:17;;;;;;;7.70;5.37;;;;;;;-1.24;100.00;99473.33;2314887;77;21114;-88
2021/12/21 11:57:18;;;;;;;12.80;7.25;;;;;;;-1.23;100.00;99479.30;2314888;77;21026;-87
2021/12/21 12:00:19;;;;;;;13.05;7.90;;;;;;;-1.24;100.00;99475.08;2315312;77;21645;-89
2021/12/21 12:03:21;;;;;;;21.68;9.55;;;;;;;-1.31;100.00;99473.76;2314502;77;20976;-83
2021/12/21 12:06:22;;;;;;;20.92;11.63;;;;;;;-1.30;100.00;99485.23;2314591;77;21601;-85
2021/12/21 12:09:22;;;;;;;16.23;9.30;;;;;;;-1.26;100.00;99470.48;2314659;77;20992;-85
2021/12/21 12:12:23;;;;;;;10.65;6.12;;;;;;;-1.21;100.00;99478.75;2314556;77;21507;-81
2021/12/21 12:15:24;;;;;;;10.75;7.80;;;;;;;-1.30;100.00;99473.67;2314559;77;20963;-87
2021/12/21 12:18:27;;;;;;;21.97;12.43;;;;;;;-1.33;100.00;99481.56;2314735;77;21015;-83
2021/12/21 12:21:30;;;;;;;22.73;12.90;;;;;;;-1.28;100.00;99473.16;2314720;77;21001;-90
2021/12/21 12:24:31;;;;;;;14.33;8.33;;;;;;;-1.21;100.00;99478.75;2314654;77;20996;-83
2021/12/21 12:27:32;;;;;;;10.43;7.35;;;;;;;-1.19;100.00;99475.63;2314954;77;21044;-86
2021/12/21 12:30:33;;;;;;;10.45;7.17;;;;;;;-1.23;100.00;99480.59;2314745;77;21014;-87
2021/12/21 12:33:34;;;;;;;10.85;6.87;;;;;;;-1.27;100.00;99476.55;2314523;77;20961;-90
2021/12/21 12:36:37;;;;;;;11.85;7.90;;;;;;;-1.32;100.00;99478.08;2314121;77;21064;-85
2021/12/21 12:39:38;;;;;;;17.10;8.55;;;;;;;-1.40;100.00;99476.84;2263993;78;21637;-85
2021/12/21 12:42:38;;;;;;;11.60;7.33;;;;;;;-1.44;100.00;99471.89;2264246;79;20964;-85
2021/12/21 12:45:39;;;;;;;13.53;7.92;;;;;;;-1.45;100.00;99471.52;2264236;79;21084;-85
2021/12/21 12:48:40;;;;;;;16.57;9.68;;;;;;;-1.45;100.00;99471.98;2263800;79;21515;-85
2021/12/21 12:51:41;;;;;;;16.80;9.35;;;;;;;-1.44;100.00;99470.60;2264186;79;20996;-85
2021/12/21 12:54:42;;;;;;;16.07;8.98;;;;;;;-1.39;100.00;99472.08;2264150;79;20999;-88
2021/12/21 12:57:42;;;;;;;16.50;9.20;;;;;;;-1.38;100.00;99467.30;2263351;79;21456;-83
2021/12/21 13:00:43;;;;;;;12.07;8.90;;;;;;;-1.39;100.00;99466.94;2264865;79;21065;-89
2021/12/21 13:03:44;;;;;;;14.13;9.28;;;;;;;-1.41;100.00;99475.19;2263290;79;21544;-89
2021/12/21 13:06:46;;;;;;;21.40;11.12;;;;;;;-1.42;100.00;99469.23;2263668;79;21055;-90
2021/12/21 13:09:49;;;;;;;13.48;8.50;;;;;;;-1.40;100.00;99476.38;2144342;83;21032;-89
2021/12/21 13:12:50;;;;;;;27.37;13.13;;;;;;;-1.43;100.00;99479.13;2230755;80;21040;-88
2021/12/21 13:15:50;;;;;;;24.18;13.22;;;;;;;-1.43;100.00;99486.84;2230388;80;21030;-90
2021/12/21 13:18:51;;;;;;;20.75;11.35;;;;;;;-1.46;100.00;99492.98;2230884;80;21107;-90
2021/12/21 13:21:57;;;;;;;24.27;12.25;;;;;;;-1.49;100.00;99479.00;2230605;80;21578;-88
2021/12/21 13:28:03;;;;;;;22.85;11.97;;;;;;;-1.52;100.00;99489.92;2209968;80;21047;-86
2021/12/21 13:31:15;;;;;;;27.02;14.15;;;;;;;-1.58;100.00;99491.07;2209409;80;21064;-86
2021/12/21 13:34:08;;;;;;;25.82;12.80;;;;;;;-1.61;100.00;99499.41;2206888;80;21068;-88
2021/12/21 13:37:18;;;;;;;23.67;12.23;;;;;;;-1.69;100.00;99493.41;2209206;80;21088;-88
2021/12/21 13:40:16;;;;;;;37.48;18.73;;;;;;;-1.75;100.00;99498.41;2142050;83;21028;-89
2021/12/21 13:43:18;;;;;;;30.57;15.00;;;;;;;-1.81;100.00;99492.34;2144417;83;21107;-89
2021/12/21 13:46:19;;;;;;;31.60;15.80;;;;;;;-1.83;100.00;99494.17;2144733;83;21040;-89
2021/12/21 13:49:20;;;;;;;37.30;17.32;;;;;;;-1.85;100.00;99494.68;2144639;83;21082;-89
2021/12/21 13:52:20;;;;;;;42.85;19.50;;;;;;;-1.86;100.00;99499.90;2144612;83;21044;-86
2021/12/21 13:55:24;;;;;;;44.13;19.82;;;;;;;-1.88;100.00;99500.45;2144315;83;21035;-87
2021/12/21 13:58:24;;;;;;;48.75;23.25;;;;;;;-1.91;100.00;99502.73;2144495;83;20969;-87
2021/12/21 14:01:25;;;;;;;50.65;23.45;;;;;;;-1.92;100.00;99502.36;2144496;83;21088;-86
2021/12/21 14:04:27;;;;;;;56.83;27.20;;;;;;;-1.93;100.00;99503.70;2144439;83;21040;-82
2021/12/21 14:07:28;;;;;;;54.30;25.40;;;;;;;-2.01;100.00;99505.41;2133797;83;20988;-82
2021/12/21 14:10:30;;;;;;;68.78;32.75;;;;;;;-2.06;100.00;99510.77;2132379;83;21084;-87
2021/12/21 14:13:31;;;;;;;81.97;36.60;;;;;;;-2.13;100.00;99507.32;2132499;83;21509;-91
2021/12/21 14:16:31;;;;;;;90.40;39.03;;;;;;;-2.16;100.00;99508.77;2132374;83;21116;-82
2021/12/21 14:19:32;;;;;;;68.95;34.80;;;;;;;-2.21;100.00;99510.28;2132433;83;21048;-85
2021/12/21 14:22:33;;;;;;;63.78;29.35;;;;;;;-2.26;100.00;99512.27;2132250;83;21048;-86
2021/12/21 14:25:34;;;;;;;165.00;59.60;;;;;;;-2.37;100.00;99510.72;2216775;80;21039;-89
2021/12/21 14:28:35;;;;;;;102.38;38.55;;;;;;;-2.42;100.00;99506.27;2228915;80;21103;-86
2021/12/21 14:31:44;;;;;;;80.20;31.80;;;;;;;-2.48;100.00;99511.25;2228633;80;21016;-87
2021/12/21 14:34:45;;;;;;;189.62;59.93;;;;;;;-2.57;100.00;99506.58;2203067;80;21783;-85
2021/12/21 14:37:46;;;;;;;142.25;43.75;;;;;;;-2.65;100.00;99499.30;2228945;78;21075;-86
2021/12/21 14:40:46;;;;;;;114.35;38.75;;;;;;;-2.63;100.00;99504.34;2231149;78;20969;-90
2021/12/21 14:43:50;;;;;;;89.72;34.83;;;;;;;-2.61;100.00;99499.51;2306320;76;21068;-84
2021/12/21 14:46:51;;;;;;;60.78;23.30;;;;;;;-2.54;100.00;99500.49;2331263;76;20992;-87
2021/12/21 14:49:54;;;;;;;73.20;30.20;;;;;;;-2.48;100.00;99500.98;2333213;76;21096;-92